Aviation Digital Data Service (ADDS)

Output produced by METARs form (0123 UTC 23 July 2017)
found at http://www.aviationweather.gov/adds/metars/
 
TAF MSLP 222125Z 2300/2324 VRB02KT SCT023 FEW037CB TX34/2218Z TN23/2310Z 
     TEMPO 2304/2307 04015G25KT 1000 +TSRA BKN020 BKN033CB OVC043 
     FM230700 02005KT 9999 FEW023 
     FM231000 CAVOK 
     FM231800 22008KT 9999 SCT023 FEW037CB 
     TEMPO 2320/2324 TS
       
TAF MSSS 222125Z 2300/2324 12006KT 9999 SCT030 FEW040CB TX31/2320Z TN21/2312Z 
     TEMPO 2303/2306 34012KT 5000 TSRA BKN027 SCT040CB 
     FM230600 36005KT 9999 FEW020 
     FM231000 CAVOK 
     FM231800 13008KT 9999 SCT027 FEW037CB 
     TEMPO 2320/2324 TS